PWSweather.com
Personal Weather Stations
Station Observations
KJ4AJP
Beautiful Downtown Gardner, Martin, TN 38237

Beautiful Downtown GardnerMartin, TN 38237

Lat: 36.358, Lon: -88.8994

Elevation: 384.3

Station Type: TP1080WC

http://weather.mambm.com/

High Low Average
Temperature 53.1°F11.7°C 23.4°F-4.8°C 39.5°F4.2°C
Dew Point 49.2°F9.6°C 19.3°F-7.1°C 37.3°F2.9°C
Winds 13.6 mph 21.9 kmh Calm Calm 4.0 mph WSW6.4 kmh WSW
Wind Gusts 23.5 mph37.8 kmh 0.7 mph1.1 kmh 10.0 mph16.1 kmh
Humidity 99% 80% 92%
Pressure 30.32 in1026.8 mb 29.83 in1010.2 mb -
Precipitation 0.21 in5.3 mm - -
Hour Temp Dew Point Humidity Winds Wind Gusts Pressure Precip Precip Rate Daily Precip Total
12:00 AM 39.4°F4.1°C 38.3°F3.5°C 96% Calm Calm 2.2 mph3.5 kmh 29.94 in1013.9 mb 0.02 in0.5 mm 0.00 in0.0 mm 0.02 in0.5 mm
12:15 AM 39.2°F4.0°C 38.4°F3.6°C 97% 1.6 mph E2.6 kmh E 2.2 mph3.5 kmh 29.93 in1013.5 mb 0.06 in1.5 mm 0.16 in4.1 mm 0.04 in1.0 mm
12:30 AM 39.0°F3.9°C 38.5°F3.6°C 98% Calm Calm 1.6 mph2.6 kmh 29.91 in1012.9 mb 0.09 in2.3 mm 0.12 in3.0 mm 0.07 in1.8 mm
12:45 AM 38.8°F3.8°C 38.3°F3.5°C 98% Calm Calm 0.7 mph1.1 kmh 29.92 in1013.2 mb 0.12 in3.0 mm 0.12 in3.0 mm 0.09 in2.3 mm
01:00 AM 38.8°F3.8°C 38.6°F3.7°C 99% 0.7 mph SE1.1 kmh SE 2.2 mph3.5 kmh 29.90 in1012.5 mb 0.13 in3.3 mm 0.01 in0.3 mm 0.13 in3.3 mm
01:15 AM 38.8°F3.8°C 38.6°F3.7°C 99% 1.6 mph SE2.6 kmh SE 6.0 mph9.7 kmh 29.90 in1012.5 mb 0.08 in2.0 mm 0.00 in0.0 mm 0.13 in3.3 mm
01:30 AM 38.7°F3.7°C 38.4°F3.6°C 99% 0.7 mph SE1.1 kmh SE 5.4 mph8.7 kmh 29.90 in1012.5 mb 0.06 in1.5 mm 0.00 in0.0 mm 0.13 in3.3 mm
01:45 AM 38.8°F3.8°C 38.6°F3.7°C 99% 3.8 mph SE6.1 kmh SE 6.9 mph11.1 kmh 29.89 in1012.2 mb 0.06 in1.5 mm 0.00 in0.0 mm 0.15 in3.8 mm
02:00 AM 38.8°F3.8°C 38.6°F3.7°C 99% 3.1 mph SE5.0 kmh SE 5.4 mph8.7 kmh 29.87 in1011.5 mb 0.04 in1.0 mm 0.00 in0.0 mm 0.17 in4.3 mm
02:15 AM 39.0°F3.9°C 38.8°F3.8°C 99% 3.1 mph SSE5.0 kmh SSE 8.3 mph13.4 kmh 29.86 in1011.2 mb 0.06 in1.5 mm 0.08 in2.0 mm 0.19 in4.8 mm
02:30 AM 39.0°F3.9°C 38.8°F3.8°C 99% 3.1 mph SSE5.0 kmh SSE 7.6 mph12.2 kmh 29.86 in1011.2 mb 0.07 in1.8 mm 0.04 in1.0 mm 0.20 in5.1 mm
02:45 AM 39.2°F4.0°C 38.9°F3.8°C 99% 3.1 mph SSE5.0 kmh SSE 6.9 mph11.1 kmh 29.86 in1011.2 mb 0.05 in1.3 mm 0.00 in0.0 mm 0.20 in5.1 mm
03:00 AM 39.2°F4.0°C 38.9°F3.8°C 99% 3.1 mph SSE5.0 kmh SSE 7.6 mph12.2 kmh 29.86 in1011.2 mb 0.04 in1.0 mm 0.00 in0.0 mm 0.20 in5.1 mm
03:15 AM 39.4°F4.1°C 39.1°F3.9°C 99% 1.6 mph SSE2.6 kmh SSE 6.9 mph11.1 kmh 29.85 in1010.8 mb 0.01 in0.3 mm 0.00 in0.0 mm 0.20 in5.1 mm
03:30 AM 39.4°F4.1°C 39.1°F3.9°C 99% 3.8 mph SSE6.1 kmh SSE 7.6 mph12.2 kmh 29.83 in1010.2 mb 0.00 in0.0 mm 0.00 in0.0 mm 0.20 in5.1 mm
03:45 AM 39.6°F4.2°C 39.3°F4.1°C 99% 2.2 mph SW3.5 kmh SW 4.5 mph7.2 kmh 29.84 in1010.5 mb 0.00 in0.0 mm 0.00 in0.0 mm 0.20 in5.1 mm
04:00 AM 39.6°F4.2°C 39.3°F4.1°C 99% 2.2 mph SW3.5 kmh SW 5.4 mph8.7 kmh 29.84 in1010.5 mb 0.00 in0.0 mm 0.00 in0.0 mm 0.20 in5.1 mm
04:15 AM 39.6°F4.2°C 39.3°F4.1°C 99% 2.2 mph SSW3.5 kmh SSW 5.4 mph8.7 kmh 29.85 in1010.8 mb 0.00 in0.0 mm 0.00 in0.0 mm 0.20 in5.1 mm
04:30 AM 39.7°F4.3°C 39.5°F4.2°C 99% 1.6 mph SW2.6 kmh SW 3.1 mph5.0 kmh 29.86 in1011.2 mb 0.01 in0.3 mm 0.04 in1.0 mm 0.21 in5.3 mm
04:45 AM 39.7°F4.3°C 39.5°F4.2°C 99% 1.6 mph WSW2.6 kmh WSW 2.2 mph3.5 kmh 29.86 in1011.2 mb 0.01 in0.3 mm 0.00 in0.0 mm 0.21 in5.3 mm
05:00 AM 39.7°F4.3°C 39.5°F4.2°C 99% 0.7 mph SW1.1 kmh SW 3.1 mph5.0 kmh 29.85 in1010.8 mb 0.01 in0.3 mm 0.00 in0.0 mm 0.21 in5.3 mm
05:15 AM 39.7°F4.3°C 39.5°F4.2°C 99% Calm Calm 1.6 mph2.6 kmh 29.86 in1011.2 mb 0.01 in0.3 mm 0.00 in0.0 mm 0.21 in5.3 mm
05:30 AM 39.6°F4.2°C 39.3°F4.1°C 99% Calm Calm 1.6 mph2.6 kmh 29.86 in1011.2 mb 0.00 in0.0 mm 0.00 in0.0 mm 0.21 in5.3 mm
05:45 AM 39.6°F4.2°C 39.3°F4.1°C 99% 0.7 mph WSW1.1 kmh WSW 2.2 mph3.5 kmh 29.86 in1011.2 mb 0.00 in0.0 mm 0.00 in0.0 mm 0.21 in5.3 mm
06:00 AM 39.6°F4.2°C 39.3°F4.1°C 99% Calm Calm 2.2 mph3.5 kmh 29.86 in1011.2 mb 0.00 in0.0 mm 0.00 in0.0 mm 0.21 in5.3 mm
06:15 AM 39.6°F4.2°C 39.3°F4.1°C 99% 0.7 mph SSE1.1 kmh SSE 3.1 mph5.0 kmh 29.86 in1011.2 mb 0.00 in0.0 mm 0.00 in0.0 mm 0.21 in5.3 mm
06:30 AM 39.4°F4.1°C 39.1°F3.9°C 99% 0.7 mph S1.1 kmh S 2.2 mph3.5 kmh 29.86 in1011.2 mb 0.00 in0.0 mm 0.00 in0.0 mm 0.21 in5.3 mm
06:45 AM 39.6°F4.2°C 39.3°F4.1°C 99% 0.7 mph SW1.1 kmh SW 2.2 mph3.5 kmh 29.87 in1011.5 mb 0.00 in0.0 mm 0.00 in0.0 mm 0.21 in5.3 mm
07:00 AM 39.6°F4.2°C 39.3°F4.1°C 99% 0.7 mph SW1.1 kmh SW 3.8 mph6.1 kmh 29.87 in1011.5 mb 0.00 in0.0 mm 0.00 in0.0 mm 0.21 in5.3 mm
07:15 AM 39.7°F4.3°C 39.5°F4.2°C 99% 2.2 mph SW3.5 kmh SW 3.8 mph6.1 kmh 29.88 in1011.9 mb 0.00 in0.0 mm 0.00 in0.0 mm 0.21 in5.3 mm
07:30 AM 39.9°F4.4°C 39.7°F4.3°C 99% 2.2 mph WSW3.5 kmh WSW 6.9 mph11.1 kmh 29.88 in1011.9 mb 0.00 in0.0 mm 0.00 in0.0 mm 0.21 in5.3 mm
07:45 AM 40.1°F4.5°C 39.8°F4.3°C 99% 1.6 mph WSW2.6 kmh WSW 6.9 mph11.1 kmh 29.88 in1011.9 mb 0.00 in0.0 mm 0.00 in0.0 mm 0.21 in5.3 mm
08:00 AM 40.5°F4.7°C 40.2°F4.6°C 99% 0.7 mph W1.1 kmh W 5.4 mph8.7 kmh 29.89 in1012.2 mb 0.00 in0.0 mm 0.00 in0.0 mm 0.21 in5.3 mm
08:15 AM 40.6°F4.8°C 40.4°F4.7°C 99% 0.7 mph W1.1 kmh W 3.1 mph5.0 kmh 29.89 in1012.2 mb 0.00 in0.0 mm 0.00 in0.0 mm 0.21 in5.3 mm
08:30 AM 40.6°F4.8°C 40.4°F4.7°C 99% 1.6 mph NW2.6 kmh NW 3.1 mph5.0 kmh 29.90 in1012.5 mb 0.00 in0.0 mm 0.00 in0.0 mm 0.21 in5.3 mm
08:45 AM 41.0°F5.0°C 40.7°F4.8°C 99% 0.7 mph WNW1.1 kmh WNW 7.6 mph12.2 kmh 29.90 in1012.5 mb 0.00 in0.0 mm 0.00 in0.0 mm 0.21 in5.3 mm
09:00 AM 41.4°F5.2°C 41.1°F5.1°C 99% 0.7 mph WNW1.1 kmh WNW 6.0 mph9.7 kmh 29.90 in1012.5 mb 0.00 in0.0 mm 0.00 in0.0 mm 0.21 in5.3 mm
09:15 AM 41.9°F5.5°C 41.6°F5.3°C 99% 0.7 mph WNW1.1 kmh WNW 4.5 mph7.2 kmh 29.90 in1012.5 mb 0.00 in0.0 mm 0.00 in0.0 mm 0.21 in5.3 mm
09:30 AM 42.3°F5.7°C 42.0°F5.6°C 99% 1.6 mph W2.6 kmh W 5.4 mph8.7 kmh 29.90 in1012.5 mb 0.00 in0.0 mm 0.00 in0.0 mm 0.21 in5.3 mm
09:45 AM 43.0°F6.1°C 42.7°F5.9°C 99% 0.7 mph WSW1.1 kmh WSW 6.9 mph11.1 kmh 29.90 in1012.5 mb 0.00 in0.0 mm 0.00 in0.0 mm 0.21 in5.3 mm
10:00 AM 44.2°F6.8°C 44.0°F6.7°C 99% 1.6 mph W2.6 kmh W 5.4 mph8.7 kmh 29.90 in1012.5 mb 0.00 in0.0 mm 0.00 in0.0 mm 0.21 in5.3 mm
10:15 AM 44.8°F7.1°C 44.5°F6.9°C 99% 1.6 mph WNW2.6 kmh WNW 4.5 mph7.2 kmh 29.90 in1012.5 mb 0.00 in0.0 mm 0.00 in0.0 mm 0.21 in5.3 mm
10:30 AM 46.6°F8.1°C 46.3°F7.9°C 99% 0.7 mph NW1.1 kmh NW 7.6 mph12.2 kmh 29.91 in1012.9 mb 0.00 in0.0 mm 0.00 in0.0 mm 0.21 in5.3 mm
10:45 AM 48.6°F9.2°C 48.3°F9.1°C 99% 2.2 mph NW3.5 kmh NW 6.9 mph11.1 kmh 29.92 in1013.2 mb 0.00 in0.0 mm 0.00 in0.0 mm 0.21 in5.3 mm
11:00 AM 50.5°F10.3°C 49.2°F9.6°C 95% 4.5 mph NW7.2 kmh NW 8.3 mph13.4 kmh 29.91 in1012.9 mb 0.00 in0.0 mm 0.00 in0.0 mm 0.21 in5.3 mm
11:15 AM 50.5°F10.3°C 48.0°F8.9°C 91% 1.6 mph WNW2.6 kmh WNW 7.6 mph12.2 kmh 29.91 in1012.9 mb 0.00 in0.0 mm 0.00 in0.0 mm 0.21 in5.3 mm
11:30 AM 51.6°F10.9°C 48.5°F9.2°C 89% 1.6 mph NW2.6 kmh NW 5.4 mph8.7 kmh 29.90 in1012.5 mb 0.00 in0.0 mm 0.00 in0.0 mm 0.21 in5.3 mm
11:45 AM 52.5°F11.4°C 48.1°F8.9°C 85% 2.2 mph W3.5 kmh W 7.6 mph12.2 kmh 29.89 in1012.2 mb 0.00 in0.0 mm 0.00 in0.0 mm 0.21 in5.3 mm
12:00 PM 52.5°F11.4°C 47.8°F8.8°C 84% 1.6 mph WNW2.6 kmh WNW 6.0 mph9.7 kmh 29.90 in1012.5 mb 0.00 in0.0 mm 0.00 in0.0 mm 0.21 in5.3 mm
12:15 PM 52.7°F11.5°C 47.7°F8.7°C 83% 3.8 mph WNW6.1 kmh WNW 8.3 mph13.4 kmh 29.90 in1012.5 mb 0.00 in0.0 mm 0.00 in0.0 mm 0.21 in5.3 mm
12:30 PM 53.1°F11.7°C 47.4°F8.6°C 81% 3.1 mph WSW5.0 kmh WSW 9.8 mph15.8 kmh 29.90 in1012.5 mb 0.00 in0.0 mm 0.00 in0.0 mm 0.21 in5.3 mm
12:45 PM 52.5°F11.4°C 46.9°F8.3°C 81% 3.8 mph W6.1 kmh W 9.2 mph14.8 kmh 29.91 in1012.9 mb 0.00 in0.0 mm 0.00 in0.0 mm 0.21 in5.3 mm
01:00 PM 52.9°F11.6°C 47.2°F8.4°C 81% 1.6 mph W2.6 kmh W 9.8 mph15.8 kmh 29.92 in1013.2 mb 0.00 in0.0 mm 0.00 in0.0 mm 0.21 in5.3 mm
01:15 PM 52.7°F11.5°C 47.0°F8.3°C 81% 2.2 mph NW3.5 kmh NW 8.3 mph13.4 kmh 29.92 in1013.2 mb 0.00 in0.0 mm 0.00 in0.0 mm 0.21 in5.3 mm
01:30 PM 52.9°F11.6°C 46.9°F8.3°C 80% 3.8 mph NW6.1 kmh NW 13.6 mph21.9 kmh 29.92 in1013.2 mb 0.00 in0.0 mm 0.00 in0.0 mm 0.21 in5.3 mm
01:45 PM 52.3°F11.3°C 46.4°F8.0°C 80% 3.1 mph NW5.0 kmh NW 10.7 mph17.2 kmh 29.92 in1013.2 mb 0.00 in0.0 mm 0.00 in0.0 mm 0.21 in5.3 mm
02:00 PM 51.4°F10.8°C 45.8°F7.7°C 81% 3.1 mph NNW5.0 kmh NNW 9.2 mph14.8 kmh 29.93 in1013.5 mb 0.00 in0.0 mm 0.00 in0.0 mm 0.21 in5.3 mm
02:15 PM 51.1°F10.6°C 45.8°F7.7°C 82% 5.4 mph NNW8.7 kmh NNW 12.1 mph19.5 kmh 29.94 in1013.9 mb 0.00 in0.0 mm 0.00 in0.0 mm 0.21 in5.3 mm
02:30 PM 50.4°F10.2°C 44.8°F7.1°C 81% 3.8 mph NNW6.1 kmh NNW 13.0 mph20.9 kmh 29.95 in1014.2 mb 0.00 in0.0 mm 0.00 in0.0 mm 0.21 in5.3 mm
02:45 PM 49.5°F9.7°C 43.9°F6.6°C 81% 2.2 mph NNW3.5 kmh NNW 7.6 mph12.2 kmh 29.95 in1014.2 mb 0.00 in0.0 mm 0.00 in0.0 mm 0.21 in5.3 mm
03:00 PM 48.7°F9.3°C 43.2°F6.2°C 81% 3.1 mph NNW5.0 kmh NNW 6.9 mph11.1 kmh 29.96 in1014.6 mb 0.00 in0.0 mm 0.00 in0.0 mm 0.21 in5.3 mm
03:15 PM 48.2°F9.0°C 42.6°F5.9°C 81% 3.8 mph NNW6.1 kmh NNW 13.0 mph20.9 kmh 29.96 in1014.6 mb 0.00 in0.0 mm 0.00 in0.0 mm 0.21 in5.3 mm
03:30 PM 47.3°F8.5°C 41.8°F5.4°C 81% 9.8 mph NW15.8 kmh NW 17.4 mph28.0 kmh 29.98 in1015.2 mb 0.00 in0.0 mm 0.00 in0.0 mm 0.21 in5.3 mm
03:45 PM 45.5°F7.5°C 40.3°F4.6°C 82% 7.6 mph NNW12.2 kmh NNW 15.2 mph24.5 kmh 30.00 in1015.9 mb 0.00 in0.0 mm 0.00 in0.0 mm 0.21 in5.3 mm
04:00 PM 43.9°F6.6°C 39.1°F3.9°C 83% 7.6 mph NNW12.2 kmh NNW 15.2 mph24.5 kmh 30.01 in1016.3 mb 0.00 in0.0 mm 0.00 in0.0 mm 0.21 in5.3 mm
04:15 PM 42.6°F5.9°C 38.1°F3.4°C 84% 6.0 mph NNW9.7 kmh NNW 15.2 mph24.5 kmh 30.03 in1016.9 mb 0.00 in0.0 mm 0.00 in0.0 mm 0.21 in5.3 mm
04:30 PM 41.2°F5.1°C 37.0°F2.8°C 85% 13.6 mph N21.9 kmh N 23.5 mph37.8 kmh 30.04 in1017.3 mb 0.00 in0.0 mm 0.00 in0.0 mm 0.21 in5.3 mm
04:45 PM 39.6°F4.2°C 35.7°F2.1°C 86% 8.3 mph N13.4 kmh N 19.7 mph31.7 kmh 30.07 in1018.3 mb 0.00 in0.0 mm 0.00 in0.0 mm 0.21 in5.3 mm
05:00 PM 38.7°F3.7°C 34.8°F1.6°C 86% 6.9 mph NNW11.1 kmh NNW 19.7 mph31.7 kmh 30.08 in1018.6 mb 0.00 in0.0 mm 0.00 in0.0 mm 0.21 in5.3 mm
05:15 PM 38.1°F3.4°C 34.6°F1.4°C 87% 4.5 mph NW7.2 kmh NW 14.5 mph23.3 kmh 30.10 in1019.3 mb 0.00 in0.0 mm 0.00 in0.0 mm 0.21 in5.3 mm
05:30 PM 37.6°F3.1°C 34.1°F1.2°C 87% 3.1 mph NNW5.0 kmh NNW 11.4 mph18.3 kmh 30.10 in1019.3 mb 0.00 in0.0 mm 0.00 in0.0 mm 0.21 in5.3 mm
05:45 PM 37.4°F3.0°C 33.9°F1.1°C 87% 3.8 mph NNW6.1 kmh NNW 8.3 mph13.4 kmh 30.11 in1019.6 mb 0.00 in0.0 mm 0.00 in0.0 mm 0.21 in5.3 mm
06:00 PM 36.5°F2.5°C 33.0°F0.6°C 87% 4.5 mph NW7.2 kmh NW 16.8 mph27.0 kmh 30.13 in1020.3 mb 0.00 in0.0 mm 0.00 in0.0 mm 0.21 in5.3 mm
06:15 PM 35.2°F1.8°C 32.3°F0.2°C 89% 4.5 mph NNW7.2 kmh NNW 13.0 mph20.9 kmh 30.14 in1020.7 mb 0.00 in0.0 mm 0.00 in0.0 mm 0.21 in5.3 mm
06:30 PM 33.8°F1.0°C 31.2°F-0.4°C 90% 3.8 mph NNW6.1 kmh NNW 19.0 mph30.6 kmh 30.15 in1021.0 mb 0.00 in0.0 mm 0.00 in0.0 mm 0.21 in5.3 mm
06:45 PM 32.5°F0.3°C 30.2°F-1.0°C 91% 4.5 mph N7.2 kmh N 21.3 mph34.3 kmh 30.17 in1021.7 mb 0.00 in0.0 mm 0.00 in0.0 mm 0.21 in5.3 mm
07:00 PM 31.5°F-0.3°C 29.7°F-1.3°C 93% 4.5 mph N7.2 kmh N 16.8 mph27.0 kmh 30.18 in1022.0 mb 0.00 in0.0 mm 0.00 in0.0 mm 0.21 in5.3 mm
07:15 PM 30.4°F-0.9°C 29.1°F-1.6°C 95% 6.9 mph N11.1 kmh N 15.9 mph25.6 kmh 30.19 in1022.4 mb 0.00 in0.0 mm 0.00 in0.0 mm 0.21 in5.3 mm
07:30 PM 29.5°F-1.4°C 28.2°F-2.1°C 95% 3.8 mph N6.1 kmh N 17.4 mph28.0 kmh 30.19 in1022.4 mb 0.00 in0.0 mm 0.00 in0.0 mm 0.21 in5.3 mm
07:45 PM 28.8°F-1.8°C 27.8°F-2.3°C 96% 4.5 mph N7.2 kmh N 19.0 mph30.6 kmh 30.20 in1022.7 mb 0.00 in0.0 mm 0.00 in0.0 mm 0.21 in5.3 mm
08:00 PM 28.0°F-2.2°C 27.3°F-2.6°C 97% 6.9 mph N11.1 kmh N 20.6 mph33.2 kmh 30.21 in1023.0 mb 0.00 in0.0 mm 0.00 in0.0 mm 0.21 in5.3 mm
08:15 PM 27.9°F-2.3°C 27.1°F-2.7°C 97% 3.8 mph N6.1 kmh N 20.6 mph33.2 kmh 30.21 in1023.0 mb 0.00 in0.0 mm 0.00 in0.0 mm 0.21 in5.3 mm
08:30 PM 27.9°F-2.3°C 26.9°F-2.8°C 96% 7.6 mph N12.2 kmh N 20.6 mph33.2 kmh 30.22 in1023.4 mb 0.00 in0.0 mm 0.00 in0.0 mm 0.21 in5.3 mm
08:45 PM 27.9°F-2.3°C 26.4°F-3.1°C 94% 8.3 mph N13.4 kmh N 18.3 mph29.5 kmh 30.23 in1023.7 mb 0.00 in0.0 mm 0.00 in0.0 mm 0.21 in5.3 mm
09:00 PM 27.3°F-2.6°C 25.1°F-3.8°C 91% 6.0 mph N9.7 kmh N 18.3 mph29.5 kmh 30.24 in1024.0 mb 0.00 in0.0 mm 0.00 in0.0 mm 0.21 in5.3 mm
09:15 PM 27.3°F-2.6°C 24.8°F-4.0°C 90% 3.8 mph NNW6.1 kmh NNW 19.7 mph31.7 kmh 30.25 in1024.4 mb 0.00 in0.0 mm 0.00 in0.0 mm 0.21 in5.3 mm
09:30 PM 27.1°F-2.7°C 24.9°F-3.9°C 91% 4.5 mph N7.2 kmh N 11.4 mph18.3 kmh 30.26 in1024.7 mb 0.00 in0.0 mm 0.00 in0.0 mm 0.21 in5.3 mm
09:45 PM 27.0°F-2.8°C 24.4°F-4.2°C 90% 7.6 mph N12.2 kmh N 17.4 mph28.0 kmh 30.27 in1025.1 mb 0.00 in0.0 mm 0.00 in0.0 mm 0.21 in5.3 mm
10:00 PM 26.6°F-3.0°C 24.1°F-4.4°C 90% 6.9 mph N11.1 kmh N 14.5 mph23.3 kmh 30.27 in1025.1 mb 0.00 in0.0 mm 0.00 in0.0 mm 0.21 in5.3 mm
10:15 PM 25.0°F-3.9°C 22.2°F-5.4°C 89% 8.3 mph N13.4 kmh N 15.2 mph24.5 kmh 30.29 in1025.7 mb 0.00 in0.0 mm 0.00 in0.0 mm 0.21 in5.3 mm
10:30 PM 25.7°F-3.5°C 22.1°F-5.5°C 86% 11.4 mph N18.3 kmh N 22.1 mph35.6 kmh 30.30 in1026.1 mb 0.00 in0.0 mm 0.00 in0.0 mm 0.21 in5.3 mm
10:45 PM 24.8°F-4.0°C 21.0°F-6.1°C 85% 6.0 mph N9.7 kmh N 19.0 mph30.6 kmh 30.29 in1025.7 mb 0.00 in0.0 mm 0.00 in0.0 mm 0.21 in5.3 mm
11:00 PM 24.1°F-4.4°C 20.3°F-6.5°C 85% 4.5 mph N7.2 kmh N 19.7 mph31.7 kmh 30.30 in1026.1 mb 0.00 in0.0 mm 0.00 in0.0 mm 0.21 in5.3 mm
11:15 PM 23.9°F-4.5°C 20.1°F-6.6°C 85% 9.2 mph NNW14.8 kmh NNW 21.3 mph34.3 kmh 30.30 in1026.1 mb 0.00 in0.0 mm 0.00 in0.0 mm 0.21 in5.3 mm
11:30 PM 23.7°F-4.6°C 19.6°F-6.9°C 84% 11.4 mph N18.3 kmh N 20.6 mph33.2 kmh 30.32 in1026.8 mb 0.00 in0.0 mm 0.00 in0.0 mm 0.21 in5.3 mm
11:45 PM 23.4°F-4.8°C 19.3°F-7.1°C 84% 5.4 mph N8.7 kmh N 16.8 mph27.0 kmh 30.32 in1026.8 mb 0.00 in0.0 mm 0.00 in0.0 mm 0.21 in5.3 mm